createdAt,value
2022-12-25T00:23:39.693Z,3.69
2022-12-25T00:26:34.485Z,3.66
2022-12-25T00:30:31.817Z,3.69
2022-12-25T00:31:31.857Z,3.73
2022-12-25T00:32:32.424Z,3.70
2022-12-25T00:33:31.892Z,3.84
2022-12-25T00:34:33.384Z,3.80
2022-12-25T00:35:31.850Z,3.84
2022-12-25T00:36:36.258Z,3.78
2022-12-25T00:37:57.684Z,4.05
2022-12-25T00:38:31.900Z,3.98
2022-12-25T00:39:34.876Z,4.08
2022-12-25T00:40:34.029Z,3.96
2022-12-25T00:41:33.881Z,3.96
2022-12-25T00:42:33.629Z,3.86
2022-12-25T00:43:33.210Z,3.99
2022-12-25T00:44:33.725Z,3.95
2022-12-25T00:45:34.987Z,3.91
2022-12-25T00:46:37.531Z,3.92
2022-12-25T00:47:34.912Z,3.81
2022-12-25T00:48:34.119Z,3.80
2022-12-25T00:49:33.544Z,3.86
2022-12-25T00:50:33.771Z,3.91
2022-12-25T00:51:33.200Z,3.86
2022-12-25T00:52:33.056Z,4.01
2022-12-25T00:53:33.154Z,4.05
2022-12-25T00:54:32.923Z,4.04
2022-12-25T00:55:33.084Z,4.14
2022-12-25T00:56:32.800Z,4.10
2022-12-25T00:57:32.928Z,4.16
2022-12-25T00:58:32.928Z,4.13
2022-12-25T00:59:32.877Z,4.17
2022-12-25T01:00:32.877Z,4.23
2022-12-25T01:01:33.162Z,4.16
2022-12-25T01:02:33.118Z,4.13
2022-12-25T01:03:33.692Z,4.06
2022-12-25T01:04:33.402Z,4.01
2022-12-25T01:05:33.747Z,4.10
2022-12-25T01:06:33.424Z,4.02
2022-12-25T01:07:33.364Z,3.98
2022-12-25T01:08:33.752Z,3.99
2022-12-25T01:09:33.831Z,4.01
2022-12-25T01:10:33.953Z,3.99
2022-12-25T01:11:34.375Z,4.01
2022-12-25T01:12:33.506Z,4.02
2022-12-25T01:13:33.092Z,4.10
2022-12-25T01:14:33.242Z,4.17
2022-12-25T01:15:33.362Z,4.14
2022-12-25T01:16:33.147Z,4.17
2022-12-25T01:17:33.885Z,4.38
2022-12-25T01:18:33.483Z,4.32
2022-12-25T01:19:34.021Z,4.42
2022-12-25T01:20:33.863Z,4.49
2022-12-25T01:21:33.010Z,4.52
2022-12-25T01:22:33.210Z,4.44
2022-12-25T01:23:33.412Z,4.56
2022-12-25T01:24:32.957Z,4.59
2022-12-25T01:25:33.374Z,4.62
2022-12-25T01:26:33.756Z,4.59
2022-12-25T01:27:34.470Z,4.68
2022-12-25T01:28:33.151Z,4.77
2022-12-25T01:29:32.966Z,4.77
2022-12-25T01:30:33.303Z,4.74
2022-12-25T01:31:33.194Z,4.70
2022-12-25T01:32:33.185Z,4.74
2022-12-25T01:33:33.040Z,4.73
2022-12-25T01:34:32.849Z,4.80
2022-12-25T01:35:32.642Z,4.80
2022-12-25T01:36:32.430Z,4.80
2022-12-25T01:37:32.505Z,4.80
2022-12-25T01:38:32.491Z,4.74
2022-12-25T01:39:32.349Z,4.71
2022-12-25T01:40:32.632Z,4.58
2022-12-25T01:41:32.755Z,4.59
2022-12-25T01:42:32.563Z,4.59
2022-12-25T01:43:32.665Z,4.56
2022-12-25T01:44:32.688Z,4.53
2022-12-25T01:45:32.126Z,4.53
2022-12-25T01:46:32.082Z,4.52
2022-12-25T01:47:32.063Z,4.50
2022-12-25T01:48:32.141Z,4.55
2022-12-25T01:49:32.080Z,4.58
2022-12-25T01:50:32.071Z,4.62
2022-12-25T01:51:31.995Z,4.56
2022-12-25T01:52:31.993Z,4.63
2022-12-25T01:53:32.006Z,4.63
2022-12-25T01:54:31.954Z,4.63
2022-12-25T01:55:32.013Z,4.74
2022-12-25T01:56:32.015Z,4.70
2022-12-25T01:57:31.940Z,4.68
2022-12-25T01:58:31.971Z,4.73
2022-12-25T01:59:31.933Z,4.75
2022-12-25T02:00:31.948Z,4.82
2022-12-25T02:01:32.080Z,4.82
2022-12-25T02:02:32.124Z,4.86
2022-12-25T02:03:32.102Z,4.89
2022-12-25T02:04:31.900Z,4.99
2022-12-25T02:05:31.923Z,5.05
2022-12-25T02:06:31.887Z,5.07
2022-12-25T02:07:31.846Z,5.15
2022-12-25T02:08:31.934Z,5.17
2022-12-25T02:09:31.845Z,5.11
2022-12-25T02:10:31.851Z,5.05
2022-12-25T02:11:31.843Z,5.02
2022-12-25T02:12:31.811Z,5.18
2022-12-25T02:13:31.819Z,5.18
2022-12-25T02:14:31.757Z,5.12
2022-12-25T02:15:31.838Z,5.08
2022-12-25T02:16:31.808Z,5.04
2022-12-25T02:17:31.729Z,5.08
2022-12-25T02:18:31.757Z,5.07
2022-12-25T02:19:31.787Z,5.11
2022-12-25T02:20:31.718Z,5.11
2022-12-25T02:21:31.918Z,5.08
2022-12-25T02:22:31.799Z,5.18
2022-12-25T02:23:31.857Z,5.12
2022-12-25T02:24:31.722Z,5.11
2022-12-25T02:25:31.760Z,5.17
2022-12-25T02:26:31.709Z,5.20
2022-12-25T02:27:31.709Z,5.17
2022-12-25T02:28:31.732Z,5.23
2022-12-25T02:29:31.698Z,5.18
2022-12-25T02:30:31.688Z,5.17
2022-12-25T02:31:31.714Z,5.32
2022-12-25T02:32:31.676Z,5.35
2022-12-25T02:33:31.642Z,5.20
2022-12-25T02:34:31.741Z,5.33
2022-12-25T02:35:31.622Z,5.36
2022-12-25T02:36:31.591Z,5.33
2022-12-25T02:37:31.634Z,5.38
2022-12-25T02:38:31.676Z,5.44
2022-12-25T02:39:31.662Z,5.53
2022-12-25T02:40:31.591Z,5.51
2022-12-25T02:41:31.643Z,5.64
2022-12-25T02:42:31.652Z,5.50
2022-12-25T02:43:31.658Z,5.65
2022-12-25T02:44:31.627Z,5.65
2022-12-25T02:45:31.634Z,5.72
2022-12-25T02:46:31.546Z,5.75
2022-12-25T02:47:31.464Z,5.76
2022-12-25T02:48:31.508Z,5.76
2022-12-25T02:49:31.486Z,5.89
2022-12-25T02:50:31.500Z,5.83
2022-12-25T02:51:31.543Z,5.75
2022-12-25T02:52:31.491Z,5.86
2022-12-25T02:53:31.522Z,5.79
2022-12-25T02:54:31.474Z,5.87
2022-12-25T02:55:31.512Z,5.84
2022-12-25T02:56:31.447Z,5.80
2022-12-25T02:57:31.462Z,5.83
2022-12-25T02:58:31.473Z,5.90
2022-12-25T02:59:31.509Z,5.82
2022-12-25T03:00:32.434Z,5.82
2022-12-25T03:01:31.629Z,5.66
2022-12-25T03:02:31.585Z,5.62
2022-12-25T03:03:31.515Z,5.50
2022-12-25T03:04:31.468Z,5.51
2022-12-25T03:05:31.447Z,5.41
2022-12-25T03:06:31.485Z,5.53
2022-12-25T03:07:31.504Z,5.47
2022-12-25T03:08:31.427Z,5.56
2022-12-25T03:09:31.556Z,5.51
2022-12-25T03:10:31.566Z,5.57
2022-12-25T03:11:31.425Z,5.56
2022-12-25T03:12:31.462Z,5.64
2022-12-25T03:13:31.664Z,5.56
2022-12-25T03:14:31.474Z,5.56
2022-12-25T03:15:31.328Z,5.62
2022-12-25T03:16:31.461Z,5.53
2022-12-25T03:17:31.362Z,5.69
2022-12-25T03:18:31.363Z,5.75
2022-12-25T03:19:31.429Z,5.79
2022-12-25T03:20:31.257Z,5.82
2022-12-25T03:21:31.482Z,5.91
2022-12-25T03:22:31.512Z,5.87
2022-12-25T03:23:31.413Z,5.87
2022-12-25T03:24:31.369Z,5.98
2022-12-25T03:25:31.273Z,6.04
2022-12-25T03:26:31.283Z,5.97
2022-12-25T03:27:31.248Z,6.09
2022-12-25T03:28:32.178Z,6.08
2022-12-25T03:29:31.944Z,6.24
2022-12-25T03:30:32.185Z,6.17
2022-12-25T03:31:31.122Z,6.26
2022-12-25T03:32:31.094Z,6.17
2022-12-25T03:33:46.007Z,6.08
2022-12-25T03:34:33.060Z,6.20
2022-12-25T03:35:31.009Z,6.22
2022-12-25T03:36:31.120Z,6.17
2022-12-25T03:37:32.106Z,6.17
2022-12-25T03:38:31.046Z,6.26
2022-12-25T03:39:31.073Z,6.20
2022-12-25T03:40:31.011Z,6.22
2022-12-25T03:41:31.020Z,6.26
2022-12-25T03:42:32.192Z,6.24
2022-12-25T03:43:30.914Z,6.19
2022-12-25T03:44:30.969Z,6.35
2022-12-25T03:45:30.929Z,6.26
2022-12-25T03:46:31.022Z,6.27
2022-12-25T03:47:30.894Z,6.28
2022-12-25T03:48:30.900Z,6.26
2022-12-25T03:49:30.887Z,6.22
2022-12-25T03:50:30.824Z,6.28
2022-12-25T03:51:30.872Z,6.16
2022-12-25T03:52:30.868Z,6.26
2022-12-25T03:53:30.823Z,6.28
2022-12-25T03:54:30.831Z,6.30
2022-12-25T03:55:30.785Z,6.20
2022-12-25T03:56:30.819Z,6.07
2022-12-25T03:57:30.815Z,6.04
2022-12-25T03:58:30.776Z,5.93
2022-12-25T03:59:30.784Z,6.02
2022-12-25T04:00:31.212Z,5.99
2022-12-25T04:01:31.549Z,5.91
2022-12-25T04:02:31.288Z,5.97
2022-12-25T04:03:31.019Z,5.99
2022-12-25T04:04:30.933Z,6.02
2022-12-25T04:05:31.044Z,6.05
2022-12-25T04:06:30.680Z,6.11
2022-12-25T04:07:30.694Z,6.04
2022-12-25T04:08:30.693Z,6.12
2022-12-25T04:09:30.667Z,6.22
2022-12-25T04:10:30.637Z,6.22
2022-12-25T04:11:30.643Z,6.17
2022-12-25T04:12:30.711Z,6.26
2022-12-25T04:13:30.612Z,6.17
2022-12-25T04:14:30.621Z,6.17
2022-12-25T04:15:30.681Z,6.17
2022-12-25T04:16:30.617Z,6.17
2022-12-25T04:17:30.566Z,6.24
2022-12-25T04:18:30.575Z,6.26
2022-12-25T04:19:30.604Z,6.35
2022-12-25T04:20:30.556Z,6.28
2022-12-25T04:21:30.781Z,6.20
2022-12-25T04:22:30.689Z,6.38
2022-12-25T04:23:30.714Z,6.33
2022-12-25T04:24:30.717Z,6.31
2022-12-25T04:25:30.661Z,6.35
2022-12-25T04:26:30.702Z,6.17
2022-12-25T04:27:30.559Z,6.31
2022-12-25T04:28:30.630Z,6.30
2022-12-25T04:29:30.515Z,6.39
2022-12-25T04:30:30.554Z,6.33
2022-12-25T04:31:30.593Z,6.41
2022-12-25T04:32:31.637Z,6.28
2022-12-25T04:33:30.657Z,6.46
2022-12-25T04:34:30.658Z,6.42
2022-12-25T04:35:30.637Z,6.54
2022-12-25T04:36:30.496Z,6.56
2022-12-25T04:37:30.488Z,6.54
2022-12-25T04:38:30.367Z,6.62
2022-12-25T04:39:30.374Z,6.69
2022-12-25T04:40:30.349Z,6.56
2022-12-25T04:41:30.386Z,6.64
2022-12-25T04:42:30.316Z,6.67
2022-12-25T04:43:30.341Z,6.64
2022-12-25T04:44:30.366Z,6.72
2022-12-25T04:45:30.324Z,6.66
2022-12-25T04:46:30.395Z,6.60
2022-12-25T04:47:30.283Z,6.69
2022-12-25T04:48:30.256Z,6.70
2022-12-25T04:49:30.291Z,6.67
2022-12-25T04:50:30.245Z,6.70
2022-12-25T04:51:30.362Z,6.63
2022-12-25T04:52:30.321Z,6.64
2022-12-25T04:53:30.373Z,6.62
2022-12-25T04:54:30.280Z,6.62
2022-12-25T04:55:30.284Z,6.60
2022-12-25T04:56:30.310Z,6.66
2022-12-25T04:57:30.324Z,6.66
2022-12-25T04:58:30.281Z,6.67
2022-12-25T04:59:30.325Z,6.63
2022-12-25T05:00:30.355Z,6.62
2022-12-25T05:01:30.450Z,6.51
2022-12-25T05:02:30.495Z,6.56
2022-12-25T05:03:30.371Z,6.54
2022-12-25T05:04:30.337Z,6.64
2022-12-25T05:05:31.223Z,6.51
2022-12-25T05:06:30.339Z,6.39
2022-12-25T05:07:30.199Z,6.28
2022-12-25T05:08:30.329Z,6.11
2022-12-25T05:09:30.348Z,6.22
2022-12-25T05:10:30.260Z,6.28
2022-12-25T05:11:30.179Z,6.31
2022-12-25T05:12:30.242Z,6.39
2022-12-25T05:13:30.189Z,6.39
2022-12-25T05:14:30.189Z,6.45
2022-12-25T05:15:30.125Z,6.44
2022-12-25T05:16:30.257Z,6.33
2022-12-25T05:17:30.069Z,6.36
2022-12-25T05:18:29.981Z,6.42
2022-12-25T05:19:29.964Z,6.45
2022-12-25T05:20:34.724Z,6.46
2022-12-25T05:21:31.986Z,6.63
2022-12-25T05:22:29.970Z,6.52
2022-12-25T05:23:29.909Z,6.49
2022-12-25T05:24:29.965Z,6.52
2022-12-25T05:25:29.881Z,6.54
2022-12-25T05:26:29.911Z,6.59
2022-12-25T05:27:29.899Z,6.56
2022-12-25T05:28:29.845Z,6.54
2022-12-25T05:29:29.892Z,6.59
2022-12-25T05:30:29.877Z,6.56
2022-12-25T05:31:29.854Z,6.62
2022-12-25T05:32:29.835Z,6.45
2022-12-25T05:33:29.872Z,6.45
2022-12-25T05:34:29.834Z,6.51
2022-12-25T05:35:29.855Z,6.60
2022-12-25T05:36:29.837Z,6.64
2022-12-25T05:37:29.813Z,6.66
2022-12-25T05:38:29.782Z,6.69
2022-12-25T05:39:29.797Z,6.66
2022-12-25T05:40:29.744Z,6.70
2022-12-25T05:41:34.150Z,6.67
2022-12-25T05:42:31.787Z,6.64
2022-12-25T05:43:29.732Z,6.70
2022-12-25T05:44:29.695Z,6.70
2022-12-25T05:45:29.695Z,6.70
2022-12-25T05:46:29.786Z,6.72
2022-12-25T05:47:29.671Z,6.64
2022-12-25T05:48:29.696Z,6.49
2022-12-25T05:49:29.690Z,6.57
2022-12-25T05:50:29.696Z,6.46
2022-12-25T05:51:29.683Z,6.46
2022-12-25T05:52:29.666Z,6.48
2022-12-25T05:53:29.601Z,6.35
2022-12-25T05:54:29.628Z,6.36
2022-12-25T05:55:29.659Z,6.28
2022-12-25T05:56:29.643Z,6.38
2022-12-25T05:57:29.611Z,6.24
2022-12-25T05:58:29.588Z,6.26
2022-12-25T05:59:29.570Z,6.35
2022-12-25T06:00:29.617Z,6.46
2022-12-25T06:01:29.704Z,6.44
2022-12-25T06:02:29.769Z,6.59
2022-12-25T06:03:29.676Z,6.56
2022-12-25T06:04:29.537Z,6.59
2022-12-25T06:05:29.529Z,6.64
2022-12-25T06:06:29.487Z,6.66
2022-12-25T06:07:29.471Z,6.78
2022-12-25T06:08:29.460Z,6.75
2022-12-25T06:09:29.522Z,6.75
2022-12-25T06:10:29.489Z,6.81
2022-12-25T06:11:29.440Z,6.72
2022-12-25T06:12:29.512Z,6.75
2022-12-25T06:13:29.428Z,6.81
2022-12-25T06:14:29.458Z,6.89
2022-12-25T06:15:29.474Z,6.85
2022-12-25T06:16:35.591Z,6.89
2022-12-25T06:17:31.436Z,6.92
2022-12-25T06:18:29.393Z,6.84
2022-12-25T06:57:53.264Z,6.77
2022-12-25T06:58:54.607Z,6.81
2022-12-25T06:59:55.513Z,6.78
2022-12-25T07:00:55.585Z,6.84
2022-12-25T07:01:54.588Z,6.78
2022-12-25T07:02:54.432Z,6.66
2022-12-25T07:03:54.384Z,6.75
2022-12-25T07:04:54.410Z,6.75
2022-12-25T07:05:54.338Z,6.64
2022-12-25T07:06:54.342Z,6.77
2022-12-25T07:07:54.286Z,6.75
2022-12-25T07:08:54.271Z,6.74
2022-12-25T07:09:54.298Z,6.81
2022-12-25T07:10:54.284Z,6.82
2022-12-25T07:11:54.245Z,6.85
2022-12-25T07:12:54.210Z,6.82
2022-12-25T07:13:54.252Z,6.74
2022-12-25T07:14:54.249Z,6.69
2022-12-25T07:15:54.212Z,6.64
2022-12-25T07:16:54.253Z,6.64
2022-12-25T07:17:54.185Z,6.60
2022-12-25T07:18:54.194Z,6.72
2022-12-25T07:19:54.160Z,6.79
2022-12-25T07:20:54.187Z,6.70
2022-12-25T07:21:54.119Z,6.81
2022-12-25T07:22:54.122Z,6.81
2022-12-25T07:23:54.204Z,6.79
2022-12-25T07:24:54.125Z,6.84
2022-12-25T07:25:54.156Z,6.81
2022-12-25T07:26:54.141Z,6.70
2022-12-25T07:27:54.132Z,6.75
2022-12-25T07:28:54.087Z,6.88
2022-12-25T07:29:54.054Z,6.81
2022-12-25T07:30:54.080Z,6.79
2022-12-25T07:31:54.099Z,6.78
2022-12-25T07:32:54.056Z,6.85
2022-12-25T07:33:54.073Z,6.77
2022-12-25T07:34:54.023Z,6.89
2022-12-25T07:35:54.016Z,6.93
2022-12-25T07:36:54.003Z,6.88
2022-12-25T07:37:54.025Z,6.93
2022-12-25T07:38:53.987Z,6.95
2022-12-25T07:39:54.032Z,6.85
2022-12-25T07:40:54.010Z,6.70
2022-12-25T07:41:53.946Z,6.77
2022-12-25T07:42:53.934Z,6.70
2022-12-25T07:43:54.022Z,6.75
2022-12-25T07:44:53.973Z,6.74
2022-12-25T07:45:54.020Z,6.70
2022-12-25T07:46:53.901Z,6.74
2022-12-25T07:47:55.143Z,6.70
2022-12-25T07:48:54.946Z,6.67
2022-12-25T07:49:53.921Z,6.70
2022-12-25T07:50:54.016Z,6.75
2022-12-25T07:51:53.852Z,6.77
2022-12-25T07:52:53.878Z,6.77
2022-12-25T07:53:53.873Z,6.89
2022-12-25T07:54:53.884Z,7.03
2022-12-25T07:55:53.901Z,6.92
2022-12-25T07:56:53.818Z,7.07
2022-12-25T07:57:53.788Z,6.97
2022-12-25T07:58:53.843Z,7.02
2022-12-25T07:59:53.816Z,7.06
2022-12-25T08:00:53.887Z,7.07
2022-12-25T08:01:54.035Z,6.97
2022-12-25T08:02:53.957Z,7.03
2022-12-25T08:03:53.873Z,7.00
2022-12-25T08:04:53.736Z,7.03
2022-12-25T08:05:53.772Z,7.05
2022-12-25T08:06:53.694Z,7.10
2022-12-25T08:07:57.361Z,7.06
2022-12-25T08:08:54.720Z,7.00
2022-12-25T08:09:53.708Z,7.03
2022-12-25T08:10:53.703Z,7.07
2022-12-25T08:11:53.653Z,7.18
2022-12-25T08:12:53.688Z,7.11
2022-12-25T08:13:53.711Z,7.14
2022-12-25T08:14:53.645Z,7.14
2022-12-25T08:15:53.664Z,7.25
2022-12-25T08:16:53.654Z,7.13
2022-12-25T08:17:53.647Z,7.18
2022-12-25T08:18:53.606Z,7.31
2022-12-25T08:19:53.631Z,7.21
2022-12-25T08:20:53.601Z,7.24
2022-12-25T08:21:53.560Z,7.29
2022-12-25T08:22:53.556Z,7.31
2022-12-25T08:23:53.581Z,7.29
2022-12-25T08:24:53.573Z,7.38
2022-12-25T08:25:56.597Z,7.33
2022-12-25T08:26:54.558Z,7.35
2022-12-25T08:27:53.585Z,7.32
2022-12-25T08:28:53.521Z,7.32
2022-12-25T08:29:53.508Z,7.35
2022-12-25T08:30:53.585Z,7.42
2022-12-25T08:31:53.581Z,7.43
2022-12-25T08:32:53.507Z,7.42
2022-12-25T08:33:53.469Z,7.47
2022-12-25T08:34:53.503Z,7.40
2022-12-25T08:35:53.511Z,7.40
2022-12-25T08:36:53.461Z,7.33
2022-12-25T08:37:53.423Z,7.36
2022-12-25T08:38:55.682Z,7.35
2022-12-25T08:39:55.401Z,7.32
2022-12-25T08:40:53.478Z,7.32
2022-12-25T08:41:53.373Z,7.35
2022-12-25T08:42:53.391Z,7.18
2022-12-25T08:43:53.376Z,7.10
2022-12-25T08:44:53.353Z,7.06
2022-12-25T08:45:53.358Z,7.10
2022-12-25T08:46:53.347Z,7.20
2022-12-25T08:47:53.381Z,7.15
2022-12-25T08:48:53.347Z,7.17
2022-12-25T08:49:53.354Z,7.31
2022-12-25T08:50:53.303Z,7.33
2022-12-25T08:51:53.284Z,7.23
2022-12-25T08:52:53.307Z,7.13
2022-12-25T08:53:53.277Z,7.13
2022-12-25T08:54:53.285Z,7.14
2022-12-25T08:55:53.341Z,7.07
2022-12-25T08:56:58.611Z,7.06
2022-12-25T08:57:54.331Z,7.15
2022-12-25T09:05:51.081Z,7.45
2022-12-25T09:06:52.332Z,7.56
2022-12-25T09:07:52.228Z,7.47
2022-12-25T09:08:52.131Z,7.54
2022-12-25T09:09:52.200Z,7.54
2022-12-25T09:10:52.170Z,7.66
2022-12-25T09:11:52.242Z,7.56
2022-12-25T09:12:52.207Z,7.69
2022-12-25T09:13:52.218Z,7.58
2022-12-25T09:14:52.160Z,7.48
2022-12-25T09:15:52.217Z,7.53
2022-12-25T09:16:52.106Z,7.38
2022-12-25T09:17:52.123Z,7.38
2022-12-25T09:18:52.276Z,7.50
2022-12-25T09:19:52.112Z,7.48
2022-12-25T09:20:52.156Z,7.50
2022-12-25T09:21:52.157Z,7.60
2022-12-25T09:22:52.145Z,7.60
2022-12-25T09:23:52.112Z,7.61
2022-12-25T09:24:52.008Z,7.54
2022-12-25T09:25:52.014Z,7.66
2022-12-25T09:26:52.092Z,7.66
2022-12-25T09:27:51.987Z,7.70
2022-12-25T09:28:52.800Z,7.69
2022-12-25T09:29:52.989Z,7.76
2022-12-25T09:30:51.988Z,7.77
2022-12-25T09:31:51.965Z,7.80
2022-12-25T09:32:51.895Z,7.60
2022-12-25T09:33:51.923Z,7.58
2022-12-25T09:34:51.964Z,7.70
2022-12-25T09:35:51.845Z,7.67
2022-12-25T09:36:51.945Z,7.63
2022-12-25T09:37:51.879Z,7.63
2022-12-25T09:38:51.870Z,7.54
2022-12-25T09:39:51.911Z,7.66
2022-12-25T09:40:51.829Z,7.69
2022-12-25T09:41:51.861Z,7.76
2022-12-25T09:42:51.819Z,7.70
2022-12-25T09:43:51.781Z,7.73
2022-12-25T09:44:51.799Z,7.76
2022-12-25T09:45:51.800Z,7.76
2022-12-25T09:46:51.887Z,7.70
2022-12-25T09:47:51.764Z,7.77
2022-12-25T09:48:51.741Z,7.72
2022-12-25T09:49:51.750Z,7.73
2022-12-25T09:50:51.823Z,7.83
2022-12-25T09:51:51.751Z,7.88
2022-12-25T09:52:52.423Z,7.90
2022-12-25T09:53:52.538Z,7.87
2022-12-25T09:54:51.709Z,7.87
2022-12-25T09:55:51.748Z,7.79
2022-12-25T09:56:51.690Z,7.76
2022-12-25T09:57:51.654Z,7.70
2022-12-25T09:58:51.685Z,7.63
2022-12-25T09:59:51.630Z,7.80
2022-12-25T10:00:51.612Z,7.85
2022-12-25T10:01:51.756Z,7.57
2022-12-25T10:02:51.787Z,7.63
2022-12-25T10:03:51.662Z,7.63
2022-12-25T10:04:51.635Z,7.57
2022-12-25T10:41:23.699Z,8.30
2022-12-25T10:42:25.085Z,8.36
2022-12-25T10:43:25.202Z,8.38
2022-12-25T10:44:24.961Z,8.44
2022-12-25T10:45:24.851Z,8.49
2022-12-25T10:46:24.873Z,8.46
2022-12-25T10:47:24.899Z,8.42
2022-12-25T10:48:24.842Z,8.55
2022-12-25T10:49:24.844Z,8.53
2022-12-25T10:50:24.836Z,8.60
2022-12-25T10:51:24.870Z,8.58
2022-12-25T10:52:24.735Z,8.69
2022-12-25T10:53:24.762Z,8.66
2022-12-25T10:54:24.787Z,8.67
2022-12-25T10:55:28.805Z,8.64
2022-12-25T10:56:25.773Z,8.66
2022-12-25T10:57:24.747Z,8.74
2022-12-25T10:58:24.833Z,8.81
2022-12-25T10:59:24.680Z,8.79
2022-12-25T11:00:24.712Z,8.78
2022-12-25T11:01:24.787Z,8.82
2022-12-25T11:02:24.836Z,8.91
2022-12-25T11:03:24.980Z,8.87
2022-12-25T11:20:13.331Z,9.14
2022-12-25T11:21:14.703Z,9.14
2022-12-25T11:22:14.639Z,9.23
2022-12-25T11:23:14.489Z,9.13
2022-12-25T11:24:14.459Z,9.14
2022-12-25T11:25:14.449Z,9.25
2022-12-25T11:26:14.467Z,9.11
2022-12-25T11:27:14.419Z,9.18
2022-12-25T11:28:14.397Z,9.19
2022-12-25T11:29:14.392Z,9.22
2022-12-25T11:30:16.068Z,9.14
2022-12-25T11:31:15.414Z,9.19
2022-12-25T11:32:14.402Z,9.22
2022-12-25T11:33:14.355Z,9.29
2022-12-25T11:34:14.326Z,9.32
2022-12-25T11:35:14.484Z,9.39
2022-12-25T11:36:14.307Z,9.37
2022-12-25T11:40:26.884Z,9.28
2022-12-25T11:41:26.879Z,9.41
2022-12-25T11:42:26.975Z,9.31
2022-12-25T11:43:26.853Z,9.26
2022-12-25T11:52:19.357Z,9.23
2022-12-25T11:53:20.663Z,9.16
2022-12-25T11:54:20.587Z,9.25
2022-12-25T11:55:20.449Z,9.21
2022-12-25T11:56:20.482Z,9.21
2022-12-25T11:57:20.464Z,9.21
2022-12-25T11:58:20.397Z,9.14
2022-12-25T11:59:20.445Z,9.00
2022-12-25T12:00:20.378Z,9.10
2022-12-25T12:01:20.508Z,9.16
2022-12-25T12:02:20.466Z,9.04
2022-12-25T12:03:20.481Z,9.10
2022-12-25T12:04:25.792Z,9.10
2022-12-25T12:05:21.420Z,9.11
2022-12-25T12:06:20.329Z,9.18
2022-12-25T12:07:20.351Z,9.22
2022-12-25T12:08:20.308Z,9.19
2022-12-25T12:09:20.303Z,9.21
2022-12-25T12:10:20.284Z,9.26
2022-12-25T12:11:20.247Z,9.04
2022-12-25T12:12:20.358Z,9.22
2022-12-25T12:13:20.245Z,9.21
2022-12-25T12:14:20.238Z,9.22
2022-12-25T12:15:20.238Z,9.08
2022-12-25T12:16:20.281Z,9.06
2022-12-25T12:17:20.245Z,9.13
2022-12-25T12:18:20.230Z,9.13
2022-12-25T12:19:20.165Z,9.13
2022-12-25T12:20:53.088Z,9.22
2022-12-25T12:21:20.927Z,9.16
2022-12-25T12:22:20.549Z,9.18
2022-12-25T12:23:21.949Z,9.18
2022-12-25T12:24:20.494Z,9.25
2022-12-25T12:35:35.601Z,9.18
2022-12-25T12:36:38.126Z,9.25
2022-12-25T12:44:52.545Z,9.26
2022-12-25T13:03:29.096Z,9.32
2022-12-25T13:19:17.425Z,9.32
2022-12-25T13:28:04.875Z,9.34
2022-12-25T13:29:11.004Z,9.32
2022-12-25T13:30:07.233Z,9.40
2022-12-25T13:31:06.210Z,9.44
2022-12-25T13:32:06.073Z,9.43
2022-12-25T13:33:06.170Z,9.47
2022-12-25T13:34:06.012Z,9.47
2022-12-25T13:35:05.973Z,9.37
2022-12-25T13:36:06.038Z,9.40
2022-12-25T13:37:06.020Z,9.41
2022-12-25T13:38:05.962Z,9.46
2022-12-25T13:39:05.907Z,9.41
2022-12-25T13:40:05.920Z,9.32
2022-12-25T13:41:06.026Z,9.22
2022-12-25T13:42:05.928Z,9.22
2022-12-25T13:43:05.882Z,9.26
2022-12-25T13:44:05.886Z,9.32
2022-12-25T13:45:05.884Z,9.23
2022-12-25T13:46:05.983Z,9.22
2022-12-25T13:47:05.817Z,9.11
2022-12-25T13:48:05.880Z,9.08
2022-12-25T13:49:05.785Z,9.13
2022-12-25T13:50:05.868Z,8.99
2022-12-25T13:51:05.788Z,9.06
2022-12-25T13:52:06.457Z,9.11
2022-12-25T13:53:05.821Z,9.11
2022-12-25T13:54:05.839Z,9.14
2022-12-25T13:55:05.750Z,9.04
2022-12-25T13:56:05.735Z,9.10
2022-12-25T13:57:05.817Z,9.22
2022-12-25T13:58:05.952Z,9.13
2022-12-25T13:59:05.791Z,9.08
2022-12-25T14:00:05.767Z,9.02
2022-12-25T14:01:05.820Z,9.04
2022-12-25T14:02:05.902Z,9.11
2022-12-25T14:03:05.946Z,9.10
2022-12-25T14:04:05.652Z,9.18
2022-12-25T14:05:05.678Z,9.16
2022-12-25T14:06:05.824Z,9.28
2022-12-25T14:07:05.850Z,9.31
2022-12-25T14:08:05.620Z,9.36
2022-12-25T14:09:05.689Z,9.29
2022-12-25T14:10:06.814Z,9.31
2022-12-25T14:11:05.858Z,9.40
2022-12-25T14:12:05.747Z,9.39
2022-12-25T14:13:05.636Z,9.29
2022-12-25T14:14:05.682Z,9.40
2022-12-25T14:15:05.748Z,9.32
2022-12-25T14:16:05.691Z,9.41
2022-12-25T14:17:05.777Z,9.43
2022-12-25T14:18:05.596Z,9.34
2022-12-25T14:19:05.623Z,9.40
2022-12-25T14:20:08.605Z,9.44
2022-12-25T14:21:06.542Z,9.16
2022-12-25T14:22:05.599Z,9.13
2022-12-25T14:23:05.767Z,9.03
2022-12-25T14:24:05.623Z,9.11
2022-12-25T14:25:05.663Z,9.19
2022-12-25T14:36:13.177Z,9.08
2022-12-25T14:37:14.769Z,9.13
2022-12-25T14:38:14.620Z,9.29
2022-12-25T14:39:14.617Z,9.31
2022-12-25T14:40:14.408Z,9.37
2022-12-25T14:41:14.543Z,9.41
2022-12-25T14:42:14.346Z,9.46
2022-12-25T14:43:14.295Z,9.44
2022-12-25T14:44:14.295Z,9.34
2022-12-25T14:45:14.468Z,9.39
2022-12-25T14:46:14.294Z,9.37
2022-12-25T14:47:14.387Z,9.28
2022-12-25T14:48:16.481Z,9.43
2022-12-25T14:49:14.434Z,9.41
2022-12-25T14:50:14.351Z,9.28
2022-12-25T14:51:14.431Z,9.47
2022-12-25T14:52:14.646Z,9.40
2022-12-25T14:53:14.319Z,9.39
2022-12-25T14:54:14.316Z,9.43
2022-12-25T14:55:14.292Z,9.39
2022-12-25T14:56:14.258Z,9.44
2022-12-25T14:57:14.140Z,9.39
2022-12-25T14:58:14.436Z,9.37
2022-12-25T14:59:14.477Z,9.37
2022-12-25T15:00:14.135Z,9.36
2022-12-25T15:01:14.302Z,9.21
2022-12-25T15:02:15.434Z,9.16
2022-12-25T15:03:15.418Z,9.11
2022-12-25T15:04:14.300Z,9.04
2022-12-25T15:05:14.201Z,9.10
2022-12-25T15:06:14.281Z,9.04
2022-12-25T15:07:14.146Z,9.13
2022-12-25T15:08:14.349Z,9.16
2022-12-25T15:09:14.038Z,9.11
2022-12-25T15:10:57.681Z,9.19
2022-12-25T15:11:16.104Z,9.00
2022-12-25T15:12:14.032Z,9.08
2022-12-25T15:13:14.102Z,9.14
2022-12-25T15:14:14.170Z,9.16
2022-12-25T15:15:14.048Z,9.11
2022-12-25T15:16:14.167Z,9.19
2022-12-25T15:17:13.967Z,9.13
2022-12-25T15:18:14.043Z,9.19
2022-12-25T15:19:14.631Z,9.10
2022-12-25T15:44:39.488Z,9.04
2022-12-25T15:45:41.246Z,8.94
2022-12-25T16:07:16.197Z,8.94
2022-12-25T16:08:16.507Z,8.89
2022-12-25T16:09:16.325Z,8.91
2022-12-25T16:10:16.242Z,8.92
2022-12-25T16:16:51.614Z,8.70
2022-12-25T16:18:11.731Z,8.64
2022-12-25T16:18:55.300Z,8.73
2022-12-25T16:19:55.153Z,8.64
2022-12-25T16:20:53.417Z,8.63
2022-12-25T16:21:55.547Z,8.58
2022-12-25T16:23:20.719Z,8.58
2022-12-25T16:25:52.116Z,8.60
2022-12-25T16:32:29.945Z,8.64
2022-12-25T16:34:03.570Z,8.61
2022-12-25T16:34:31.625Z,8.67
2022-12-25T16:35:31.107Z,8.67
2022-12-25T16:36:30.921Z,8.76
2022-12-25T16:37:30.965Z,8.64
2022-12-25T16:38:30.963Z,8.61
2022-12-25T16:39:30.938Z,8.70
2022-12-25T16:40:30.895Z,8.67
2022-12-25T16:45:08.853Z,8.64
2022-12-25T16:46:30.244Z,8.69
2022-12-25T16:47:10.256Z,8.79
2022-12-25T16:48:10.216Z,8.78
2022-12-25T16:49:48.747Z,8.85
2022-12-25T16:50:10.228Z,8.82
2022-12-25T16:51:10.064Z,8.71
2022-12-25T16:52:09.854Z,8.78
2022-12-25T16:53:10.292Z,8.91
2022-12-25T16:54:10.080Z,8.92
2022-12-25T16:59:47.418Z,9.13
2022-12-25T17:03:59.549Z,9.00
2022-12-25T17:07:33.480Z,9.13
2022-12-25T17:10:53.784Z,9.03
2022-12-25T17:12:01.554Z,9.02
2022-12-25T17:14:44.993Z,9.06
2022-12-25T17:15:52.774Z,9.10
2022-12-25T17:19:58.806Z,9.23
2022-12-25T17:20:58.665Z,9.18
2022-12-25T17:21:58.612Z,9.25
2022-12-25T17:22:58.654Z,9.23
2022-12-25T17:24:03.083Z,9.22
2022-12-25T17:24:59.550Z,9.28
2022-12-25T17:25:58.446Z,9.23
2022-12-25T17:26:58.515Z,9.31
2022-12-25T17:27:58.492Z,9.19
2022-12-25T17:28:58.460Z,9.25
2022-12-25T17:29:59.092Z,9.18
2022-12-25T17:30:58.557Z,9.18
2022-12-25T17:31:58.516Z,9.28
2022-12-25T17:32:58.419Z,9.32
2022-12-25T17:45:15.925Z,9.28
2022-12-25T17:46:18.675Z,9.43
2022-12-25T17:47:15.866Z,9.43
2022-12-25T17:48:17.019Z,9.41
2022-12-25T17:49:17.171Z,9.40
2022-12-25T17:50:17.058Z,9.44
2022-12-25T17:51:16.931Z,9.46
2022-12-25T17:52:17.003Z,9.37
2022-12-25T17:53:16.950Z,9.48
2022-12-25T17:54:17.871Z,9.54
2022-12-25T17:55:16.964Z,9.55
2022-12-25T17:56:50.841Z,9.58
2022-12-25T17:57:18.090Z,9.55
2022-12-25T17:58:17.141Z,9.56
2022-12-25T17:59:19.426Z,9.62
2022-12-25T18:00:19.485Z,9.64
2022-12-25T18:01:16.887Z,9.73
2022-12-25T18:02:16.989Z,9.65
2022-12-25T18:03:16.965Z,9.68
2022-12-25T18:04:17.275Z,9.64
2022-12-25T18:05:17.025Z,9.64
2022-12-25T18:06:17.149Z,9.73
2022-12-25T18:07:17.469Z,9.66
2022-12-25T18:08:16.850Z,9.72
2022-12-25T18:15:49.298Z,9.73
2022-12-25T18:16:49.262Z,9.74
2022-12-25T18:49:10.333Z,9.97
2022-12-25T19:06:51.250Z,10.07
2022-12-25T19:15:48.010Z,9.98